Huvudsida
METAR-TAF:

METAR-TAF

Flygplatser :

Jeddah, Saudiarabien

latitud: 21-42N, longitud: 039-11E, höjd: 15 m

Aktuellt väderrapport

Denna rapport gjordes för 10 minuter sedan, klockan 08:00 UTC
Vind 10 kt från väst
Temperatur 35°C
Fuktighet 42%
Tryck 1002 hPa
Sikt 10 km eller mer
Få moln på en höjd av 4000 ft

METAR: OEJN 270800Z 27010KT 9999 FEW040 35/20 Q1002 NOSIG

Tid: 11:10 (08:10 UTC)

Väderprognos

Denna rapport gjordes för 3 timmar och 10 minuter sedan, klockan 05:00 UTC
Prognos gäller från 27 kl. 06 UTC till 28 kl. 12 UTC
Vind 14 kt från väst/nordväst
Sikt 10 km eller mer
Spridda moln på en höjd av 4000 ft

TAF: OEJN 270500Z 2706/2812 30014KT 9999 SCT040

Aktuella väderrapporter och prognoser från 4000 flygplatser (METAR- och TAF-rapporter).

De tillgängliga stationerna syns som gula och röda prickar på kartan.

För musen över prickarna för att se namnen på stationerna.

Klicka sedan för att få väderrapporter och prognoser.

För att ändra kartan: Klicka på de gröna knapparna med ett svart kors på för att zooma in; den gröna knappen med ett streck på för att zooma ut; eller på de gröna pilarna för angränsande kartor.


METAR-TAF: